Time;durP1;ratioP1;P1;durP2;ratioP2;P2;SDS_P1;SDS_P2;PMS_P1;PMS_P2;Temp;Humidity;BMP_temperature;BMP_pressure;BME280_temperature;BME280_humidity;BME280_pressure;Samples;Min_cycle;Max_cycle;Signal;HPM_P1;HPM_P2
2022/03/20 00:00:44;;;;;;;1.50;1.30;;;6.40;81.30;;;;;;5028010;28;20955;-74
2022/03/20 00:03:12;;;;;;;1.50;1.30;;;6.30;81.80;;;;;;5029993;28;20525;-73
2022/03/20 00:05:41;;;;;;;1.50;1.30;;;6.30;81.60;;;;;;5032914;28;20462;-73
2022/03/20 00:08:09;;;;;;;2.37;2.17;;;6.30;81.50;;;;;;5028059;28;20459;-73
2022/03/20 00:10:36;;;;;;;1.50;1.40;;;6.20;81.30;;;;;;5032481;28;20517;-74
2022/03/20 00:13:05;;;;;;;1.50;1.40;;;6.20;80.90;;;;;;5028226;28;20848;-74
2022/03/20 00:15:33;;;;;;;1.50;1.30;;;6.20;81.10;;;;;;5029336;28;20467;-73
2022/03/20 00:18:00;;;;;;;1.50;1.30;;;6.20;81.00;;;;;;5051116;28;21009;-74
2022/03/20 00:20:27;;;;;;;1.50;1.30;;;6.20;81.00;;;;;;5028372;28;20493;-73
2022/03/20 00:22:56;;;;;;;1.50;1.30;;;6.20;81.20;;;;;;5028697;28;20498;-72
2022/03/20 00:25:22;;;;;;;1.50;1.30;;;6.10;81.10;;;;;;5038619;28;20488;-73
2022/03/20 00:27:49;;;;;;;1.50;1.30;;;6.10;81.10;;;;;;5028131;28;20478;-73
2022/03/20 00:30:16;;;;;;;1.60;1.40;;;6.00;81.40;;;;;;5030053;28;20463;-73
2022/03/20 00:32:44;;;;;;;1.50;1.30;;;6.00;81.10;;;;;;5027922;28;20493;-73
2022/03/20 00:35:11;;;;;;;1.53;1.33;;;6.00;81.10;;;;;;5028807;28;20470;-73
2022/03/20 00:37:37;;;;;;;1.50;1.30;;;6.00;81.00;;;;;;5028540;28;20466;-74
2022/03/20 00:40:05;;;;;;;1.60;1.40;;;5.90;81.00;;;;;;5031190;28;20472;-72
2022/03/20 00:42:32;;;;;;;1.50;1.30;;;5.90;81.20;;;;;;5027218;28;20491;-74
2022/03/20 00:44:59;;;;;;;4.03;3.77;;;5.90;81.30;;;;;;5027567;28;20460;-73
2022/03/20 00:47:26;;;;;;;1.53;1.30;;;5.80;81.30;;;;;;5028689;28;20994;-74
2022/03/20 00:49:54;;;;;;;1.50;1.30;;;5.80;81.10;;;;;;5027722;28;20463;-74
2022/03/20 00:52:21;;;;;;;1.50;1.30;;;5.80;81.20;;;;;;5029695;28;21042;-74
2022/03/20 00:54:47;;;;;;;1.50;1.30;;;5.80;81.10;;;;;;5033975;28;20981;-74
2022/03/20 00:57:14;;;;;;;2.80;2.60;;;5.80;81.20;;;;;;5041652;28;20498;-74
2022/03/20 00:59:41;;;;;;;1.60;1.40;;;5.70;80.80;;;;;;5037654;28;20470;-74
2022/03/20 01:02:08;;;;;;;2.90;2.70;;;5.70;80.90;;;;;;5030772;28;20548;-73
2022/03/20 01:04:35;;;;;;;2.70;2.50;;;5.70;80.70;;;;;;5028297;28;20459;-73
2022/03/20 01:07:04;;;;;;;1.50;1.30;;;5.70;80.70;;;;;;5037914;28;20484;-73
2022/03/20 01:09:31;;;;;;;1.53;1.30;;;5.70;80.80;;;;;;5036690;28;20815;-73
2022/03/20 01:11:58;;;;;;;1.50;1.40;;;5.60;80.70;;;;;;5026921;28;20483;-74
2022/03/20 01:14:26;;;;;;;1.50;1.30;;;5.70;80.80;;;;;;5027824;28;20490;-73
2022/03/20 01:16:54;;;;;;;1.60;1.30;;;5.60;81.00;;;;;;5027208;28;20466;-72
2022/03/20 01:19:21;;;;;;;1.50;1.30;;;5.60;80.70;;;;;;5026951;28;20467;-74
2022/03/20 01:21:48;;;;;;;2.03;1.93;;;5.60;80.60;;;;;;5027341;28;20490;-71
2022/03/20 01:24:16;;;;;;;1.50;1.30;;;5.60;80.50;;;;;;5029933;28;20466;-73
2022/03/20 01:26:42;;;;;;;1.50;1.33;;;5.60;80.40;;;;;;5028605;28;20976;-73
2022/03/20 01:29:10;;;;;;;1.50;1.30;;;5.70;80.50;;;;;;5028251;28;20467;-74
2022/03/20 01:31:38;;;;;;;2.53;2.33;;;5.60;80.40;;;;;;5027238;28;20482;-74
2022/03/20 01:34:05;;;;;;;1.50;1.30;;;5.60;80.30;;;;;;5032282;28;20494;-74
2022/03/20 01:36:32;;;;;;;1.57;1.40;;;5.60;80.40;;;;;;5028180;28;20852;-73
2022/03/20 01:38:59;;;;;;;2.87;2.67;;;5.60;80.40;;;;;;5027955;28;20842;-74
2022/03/20 01:41:28;;;;;;;1.50;1.30;;;5.60;80.20;;;;;;5025761;28;20888;-73
2022/03/20 01:43:57;;;;;;;1.50;1.40;;;5.60;80.50;;;;;;5026939;28;20463;-73
2022/03/20 01:46:24;;;;;;;1.60;1.47;;;5.60;80.60;;;;;;5028162;28;20466;-74
2022/03/20 01:48:51;;;;;;;1.50;1.30;;;5.60;80.40;;;;;;5036328;28;20544;-73
2022/03/20 01:52:10;;;;;;;1.50;1.30;;;5.60;80.70;;;;;;5030752;28;20491;-73
2022/03/20 01:54:05;;;;;;;1.50;1.30;;;5.60;80.70;;;;;;5034290;28;20523;-72
2022/03/20 01:56:34;;;;;;;1.50;1.30;;;5.60;80.50;;;;;;5035690;28;20470;-74
2022/03/20 01:59:03;;;;;;;1.57;1.40;;;5.60;80.50;;;;;;5038499;28;20614;-73
2022/03/20 02:01:29;;;;;;;1.73;1.63;;;5.60;80.60;;;;;;5030402;28;20967;-74
2022/03/20 02:03:57;;;;;;;1.50;1.30;;;5.60;80.40;;;;;;5031720;28;20487;-73
2022/03/20 02:06:25;;;;;;;1.57;1.43;;;5.60;80.40;;;;;;5030919;28;20481;-73
2022/03/20 02:08:53;;;;;;;1.50;1.37;;;5.50;80.40;;;;;;5052849;28;20554;-73
2022/03/20 02:11:21;;;;;;;1.50;1.30;;;5.50;80.40;;;;;;5032401;28;20519;-73
2022/03/20 02:13:49;;;;;;;1.57;1.40;;;5.50;80.40;;;;;;5054443;28;20495;-73
2022/03/20 02:16:15;;;;;;;1.53;1.30;;;5.50;80.30;;;;;;5036711;28;21010;-73
2022/03/20 02:18:43;;;;;;;1.57;1.30;;;5.40;80.20;;;;;;5030729;28;21246;-74
2022/03/20 02:21:11;;;;;;;1.50;1.30;;;5.50;80.40;;;;;;5019530;28;20576;-74
2022/03/20 02:23:37;;;;;;;1.53;1.30;;;5.40;80.40;;;;;;5028661;28;20844;-73
2022/03/20 02:26:04;;;;;;;1.50;1.30;;;5.50;80.40;;;;;;5041877;28;20475;-73
2022/03/20 02:28:31;;;;;;;2.40;2.20;;;5.50;80.50;;;;;;5032510;28;20967;-73
2022/03/20 02:30:58;;;;;;;1.50;1.30;;;5.50;80.40;;;;;;5033416;28;21113;-73
2022/03/20 02:33:27;;;;;;;1.50;1.30;;;5.40;80.20;;;;;;5030607;28;20483;-73
2022/03/20 02:35:55;;;;;;;1.50;1.40;;;5.50;80.40;;;;;;5029521;28;20951;-71
2022/03/20 02:38:23;;;;;;;1.60;1.47;;;5.50;80.30;;;;;;5030415;28;21042;-74
2022/03/20 02:40:52;;;;;;;1.60;1.50;;;5.50;80.60;;;;;;5023145;28;20470;-73
2022/03/20 02:43:18;;;;;;;1.60;1.50;;;5.50;80.60;;;;;;5058004;28;20490;-73
2022/03/20 02:45:45;;;;;;;1.60;1.50;;;5.50;80.80;;;;;;5030471;28;20471;-74
2022/03/20 02:48:12;;;;;;;1.50;1.30;;;5.50;80.70;;;;;;5029965;28;20467;-73
2022/03/20 02:50:40;;;;;;;1.53;1.30;;;5.60;80.60;;;;;;5027758;28;20490;-73
2022/03/20 02:53:11;;;;;;;2.23;2.13;;;5.60;80.70;;;;;;5035692;28;20493;-73
2022/03/20 02:55:41;;;;;;;1.50;1.40;;;5.60;81.20;;;;;;5034674;28;20465;-73
2022/03/20 02:58:10;;;;;;;1.50;1.30;;;5.60;81.10;;;;;;5030407;28;20463;-73
2022/03/20 03:00:39;;;;;;;1.50;1.40;;;5.60;81.20;;;;;;5029042;28;20489;-74
2022/03/20 03:03:06;;;;;;;1.50;1.30;;;5.60;81.60;;;;;;5030317;28;20979;-73
2022/03/20 03:05:34;;;;;;;1.50;1.30;;;5.60;82.20;;;;;;5028584;28;20476;-73
2022/03/20 03:10:59;;;;;;;1.50;1.30;;;5.60;82.00;;;;;;5033153;28;20442;-73
2022/03/20 03:13:27;;;;;;;1.50;1.40;;;5.60;81.50;;;;;;5030225;28;20911;-71
2022/03/20 03:15:56;;;;;;;1.60;1.50;;;5.60;81.60;;;;;;5029754;28;20463;-73
2022/03/20 03:18:23;;;;;;;1.50;1.20;;;5.60;81.10;;;;;;5030159;28;20976;-73
2022/03/20 03:20:50;;;;;;;1.50;1.40;;;5.60;81.60;;;;;;5031292;28;20470;-73
2022/03/20 03:23:19;;;;;;;1.50;1.30;;;5.60;82.00;;;;;;5027940;28;20462;-73
2022/03/20 03:25:45;;;;;;;1.50;1.30;;;5.60;82.30;;;;;;5037925;28;20468;-73
2022/03/20 03:28:14;;;;;;;1.50;1.30;;;5.60;81.80;;;;;;5029746;28;20470;-73
2022/03/20 03:30:44;;;;;;;1.50;1.37;;;5.60;82.00;;;;;;5028551;28;20471;-73
2022/03/20 03:33:12;;;;;;;2.53;2.37;;;5.60;82.10;;;;;;5029411;28;20490;-73
2022/03/20 03:35:46;;;;;;;1.50;1.30;;;5.60;81.80;;;;;;5034673;28;20494;-73
2022/03/20 03:38:14;;;;;;;1.50;1.30;;;5.60;81.80;;;;;;5029701;28;20466;-73
2022/03/20 03:40:43;;;;;;;1.50;1.30;;;5.50;81.40;;;;;;5028704;28;20474;-73
2022/03/20 03:43:10;;;;;;;1.60;1.40;;;5.50;81.20;;;;;;5029584;28;20540;-73
2022/03/20 03:45:39;;;;;;;1.50;1.30;;;5.50;81.30;;;;;;5027262;28;20487;-73
2022/03/20 03:48:06;;;;;;;1.50;1.30;;;5.50;81.40;;;;;;5051083;28;20508;-73
2022/03/20 03:50:34;;;;;;;1.50;1.20;;;5.50;81.00;;;;;;5030434;28;20650;-73
2022/03/20 03:53:00;;;;;;;1.53;1.33;;;5.50;81.00;;;;;;5032124;28;20479;-74
2022/03/20 03:55:27;;;;;;;2.57;2.37;;;5.50;80.60;;;;;;5035979;28;20491;-73
2022/03/20 03:57:54;;;;;;;1.50;1.27;;;5.50;80.40;;;;;;5029612;28;20488;-73
2022/03/20 04:00:22;;;;;;;1.50;1.37;;;5.50;80.50;;;;;;5029235;28;20473;-73
2022/03/20 04:02:50;;;;;;;1.50;1.33;;;5.40;80.50;;;;;;5028582;28;20565;-73
2022/03/20 04:05:19;;;;;;;1.50;1.30;;;5.40;80.30;;;;;;5029064;28;20545;-73
2022/03/20 04:07:47;;;;;;;1.50;1.30;;;5.40;80.60;;;;;;5028829;28;20513;-73
2022/03/20 04:10:15;;;;;;;1.50;1.33;;;5.40;80.40;;;;;;5030053;28;20467;-73
2022/03/20 04:12:43;;;;;;;1.50;1.40;;;5.40;80.20;;;;;;5028348;28;20486;-73
2022/03/20 04:15:10;;;;;;;1.50;1.30;;;5.30;80.20;;;;;;5032914;28;20570;-72
2022/03/20 04:17:38;;;;;;;1.50;1.30;;;5.30;80.00;;;;;;5028664;28;21007;-72
2022/03/20 04:20:08;;;;;;;1.50;1.40;;;5.30;79.80;;;;;;5026947;28;20982;-74
2022/03/20 04:22:36;;;;;;;1.50;1.40;;;5.30;80.00;;;;;;5031986;28;20482;-72
2022/03/20 04:25:04;;;;;;;1.50;1.30;;;5.20;80.10;;;;;;5030143;28;20842;-73
2022/03/20 04:27:31;;;;;;;1.50;1.40;;;5.20;80.20;;;;;;5028390;28;20459;-73
2022/03/20 04:29:58;;;;;;;1.50;1.40;;;5.20;80.40;;;;;;5030403;28;20854;-73
2022/03/20 04:32:25;;;;;;;1.50;1.27;;;5.20;80.10;;;;;;5027924;28;20490;-73
2022/03/20 04:34:52;;;;;;;1.57;1.30;;;5.10;80.10;;;;;;5028248;28;20494;-73
2022/03/20 04:37:22;;;;;;;1.50;1.30;;;5.10;79.90;;;;;;5027792;28;20481;-73
2022/03/20 04:39:49;;;;;;;7.80;5.73;;;5.10;79.60;;;;;;5031535;28;20466;-73
2022/03/20 04:42:16;;;;;;;1.50;1.30;;;5.10;79.10;;;;;;5028735;28;20557;-73
2022/03/20 04:44:43;;;;;;;1.60;1.40;;;5.10;79.20;;;;;;5028774;28;20463;-73
2022/03/20 04:58:29;;;;;;;1.50;1.30;;;5.10;79.10;;;;;;5028569;28;20491;-73
2022/03/20 04:58:31;;;;;;;1.53;1.33;;;5.10;79.00;;;;;;5049840;28;20996;-73
2022/03/20 05:00:58;;;;;;;1.80;1.70;;;5.20;78.90;;;;;;5027139;28;20482;-73
2022/03/20 05:03:25;;;;;;;1.50;1.40;;;5.10;78.60;;;;;;5028216;28;20471;-73
2022/03/20 05:05:51;;;;;;;1.87;1.77;;;5.20;78.70;;;;;;5026114;28;20465;-73
2022/03/20 05:08:20;;;;;;;3.50;3.30;;;5.20;78.60;;;;;;5027260;28;20471;-73
2022/03/20 05:13:30;;;;;;;1.50;1.30;;;5.20;78.70;;;;;;5028959;28;20822;-73
2022/03/20 05:15:57;;;;;;;1.60;1.40;;;5.20;78.70;;;;;;5027865;28;20494;-73
2022/03/20 05:18:25;;;;;;;1.50;1.30;;;5.20;79.00;;;;;;5027930;28;20816;-71
2022/03/20 05:20:52;;;;;;;1.60;1.50;;;5.20;79.00;;;;;;5016113;28;20467;-73
2022/03/20 05:23:21;;;;;;;1.80;1.70;;;5.20;79.10;;;;;;5045513;28;20976;-74
2022/03/20 05:25:48;;;;;;;2.00;1.90;;;5.10;79.20;;;;;;5038540;28;20459;-73
2022/03/20 05:28:15;;;;;;;1.50;1.30;;;5.10;79.30;;;;;;5032384;28;20545;-73
2022/03/20 05:30:43;;;;;;;1.50;1.30;;;5.10;79.30;;;;;;5032426;28;21004;-74
2022/03/20 05:33:11;;;;;;;1.50;1.40;;;5.10;79.60;;;;;;5031322;28;20987;-73
2022/03/20 05:35:39;;;;;;;1.53;1.40;;;5.10;79.60;;;;;;5031692;28;21017;-73
2022/03/20 05:38:07;;;;;;;1.50;1.30;;;5.20;79.60;;;;;;5053832;28;20485;-73
2022/03/20 05:40:35;;;;;;;2.70;2.50;;;5.20;79.80;;;;;;5032662;28;20478;-73
2022/03/20 05:43:02;;;;;;;1.50;1.30;;;5.20;79.80;;;;;;5031382;28;20474;-73
2022/03/20 05:45:29;;;;;;;1.50;1.30;;;5.20;79.80;;;;;;5034547;28;20454;-73
2022/03/20 05:47:56;;;;;;;1.50;1.30;;;5.20;79.60;;;;;;5031172;28;20459;-73
2022/03/20 05:50:24;;;;;;;1.50;1.20;;;5.30;79.70;;;;;;5029209;28;20521;-73
2022/03/20 05:52:52;;;;;;;2.87;2.67;;;5.30;79.60;;;;;;5055373;28;20567;-71
2022/03/20 05:58:01;;;;;;;1.50;1.30;;;5.30;79.60;;;;;;5032347;28;20562;-71
2022/03/20 05:58:11;;;;;;;1.60;1.40;;;5.30;79.50;;;;;;5031495;28;20556;-71
2022/03/20 06:00:41;;;;;;;1.50;1.40;;;5.40;79.60;;;;;;5029964;28;20478;-71
2022/03/20 06:03:09;;;;;;;1.50;1.30;;;5.40;79.40;;;;;;5031231;28;20462;-70
2022/03/20 06:05:35;;;;;;;1.80;1.67;;;5.40;79.70;;;;;;5031496;28;20564;-72
2022/03/20 06:08:02;;;;;;;2.80;2.47;;;5.50;79.60;;;;;;5031309;28;20463;-71
2022/03/20 06:10:29;;;;;;;1.50;1.30;;;5.50;79.70;;;;;;5033060;28;20469;-72
2022/03/20 06:12:56;;;;;;;2.07;1.97;;;5.60;80.00;;;;;;5052786;28;20561;-72
2022/03/20 06:15:24;;;;;;;1.63;1.53;;;5.70;79.90;;;;;;5031503;28;20502;-72
2022/03/20 06:17:51;;;;;;;7.73;7.17;;;5.80;79.80;;;;;;5030717;28;20467;-72
2022/03/20 06:20:18;;;;;;;2.23;2.03;;;5.80;79.50;;;;;;5032532;28;20490;-72
2022/03/20 06:22:47;;;;;;;1.50;1.30;;;6.00;79.70;;;;;;5031987;28;21223;-73
2022/03/20 06:25:15;;;;;;;1.70;1.60;;;6.00;79.90;;;;;;5040556;28;20485;-72
2022/03/20 06:27:43;;;;;;;1.50;1.30;;;6.20;79.60;;;;;;5029670;28;20469;-72
2022/03/20 06:30:11;;;;;;;1.50;1.20;;;6.30;79.40;;;;;;5030237;28;20466;-72
2022/03/20 06:32:39;;;;;;;1.50;1.20;;;6.40;79.50;;;;;;5030443;28;20479;-72
2022/03/20 06:35:07;;;;;;;1.50;1.30;;;6.50;78.80;;;;;;5030106;28;20846;-72
2022/03/20 06:37:38;;;;;;;1.50;1.40;;;6.60;78.60;;;;;;5028192;28;20834;-72
2022/03/20 06:40:06;;;;;;;1.50;1.30;;;6.70;78.40;;;;;;5027685;28;20468;-72
2022/03/20 06:42:33;;;;;;;1.50;1.30;;;6.70;78.10;;;;;;5029174;28;20518;-71
2022/03/20 06:45:00;;;;;;;1.50;1.30;;;6.80;78.10;;;;;;5030355;28;20459;-72
2022/03/20 06:47:27;;;;;;;1.50;1.20;;;6.80;77.90;;;;;;5046861;28;20567;-72
2022/03/20 06:49:56;;;;;;;15.57;4.50;;;6.80;77.90;;;;;;5035947;28;20467;-72
2022/03/20 06:52:23;;;;;;;1.70;1.60;;;6.90;77.70;;;;;;5030479;28;20572;-72
2022/03/20 06:54:50;;;;;;;1.50;1.20;;;7.00;77.40;;;;;;5030917;28;20490;-72
2022/03/20 06:57:20;;;;;;;5.23;4.90;;;7.10;77.20;;;;;;5030117;28;20471;-72
2022/03/20 06:59:47;;;;;;;1.50;1.30;;;7.20;76.40;;;;;;5027746;28;20970;-72
2022/03/20 07:02:15;;;;;;;1.50;1.30;;;7.30;75.80;;;;;;5043995;28;21062;-72
2022/03/20 07:04:43;;;;;;;2.00;1.90;;;7.30;75.70;;;;;;5037926;28;20963;-71
2022/03/20 07:07:11;;;;;;;2.70;2.43;;;7.50;75.80;;;;;;5026944;28;20502;-72
2022/03/20 07:09:37;;;;;;;1.70;1.60;;;7.60;74.70;;;;;;5027729;28;20465;-71
2022/03/20 07:12:05;;;;;;;1.50;1.40;;;7.50;74.30;;;;;;5029504;28;20479;-71
2022/03/20 07:14:32;;;;;;;2.20;2.00;;;7.40;74.40;;;;;;5029721;28;20459;-72
2022/03/20 07:16:59;;;;;;;2.70;2.50;;;7.30;74.40;;;;;;5027362;28;20836;-71
2022/03/20 07:19:27;;;;;;;1.60;1.47;;;7.20;74.60;;;;;;5029468;28;20513;-74
2022/03/20 07:21:53;;;;;;;4.30;4.07;;;7.20;75.00;;;;;;5029733;28;20533;-72
2022/03/20 07:24:21;;;;;;;1.50;1.30;;;7.10;75.40;;;;;;5033719;28;20841;-75
2022/03/20 07:29:32;;;;;;;4.90;3.93;;;7.20;75.20;;;;;;5025560;28;20462;-73
2022/03/20 07:32:01;;;;;;;1.50;1.20;;;7.20;75.10;;;;;;5028628;28;20557;-73
2022/03/20 07:34:28;;;;;;;1.50;1.17;;;7.20;75.20;;;;;;5028750;28;20866;-71
2022/03/20 07:36:55;;;;;;;1.50;1.30;;;7.30;75.00;;;;;;5028287;28;20546;-72
2022/03/20 07:39:23;;;;;;;1.50;1.30;;;7.40;74.60;;;;;;5028480;28;20490;-74
2022/03/20 07:41:50;;;;;;;1.90;1.80;;;7.50;74.60;;;;;;5024639;28;20489;-73
2022/03/20 07:44:17;;;;;;;1.50;1.10;;;7.60;74.80;;;;;;5029022;28;20471;-72
2022/03/20 07:46:43;;;;;;;2.27;2.13;;;7.70;74.70;;;;;;5028037;28;20955;-72
2022/03/20 07:49:12;;;;;;;1.50;1.30;;;8.00;74.40;;;;;;5028653;28;20462;-74
2022/03/20 07:51:39;;;;;;;1.50;1.20;;;8.20;73.80;;;;;;5027953;28;20481;-73
2022/03/20 07:54:06;;;;;;;1.50;1.20;;;8.30;73.40;;;;;;5031702;28;20467;-75
2022/03/20 07:56:35;;;;;;;1.50;1.30;;;8.40;73.20;;;;;;5030226;28;20485;-76
2022/03/20 07:59:05;;;;;;;1.50;1.30;;;8.40;73.20;;;;;;5028577;28;20466;-73
2022/03/20 08:01:33;;;;;;;1.60;1.47;;;8.40;73.10;;;;;;5032156;28;20870;-72
2022/03/20 08:04:00;;;;;;;2.37;2.17;;;8.60;72.90;;;;;;5048072;28;20831;-72
2022/03/20 08:06:27;;;;;;;5.77;5.37;;;8.70;72.60;;;;;;5027415;28;20455;-73
2022/03/20 08:08:54;;;;;;;1.50;1.10;;;8.70;72.30;;;;;;5028519;28;20469;-75
2022/03/20 08:11:21;;;;;;;1.50;1.33;;;8.80;72.10;;;;;;5028890;28;20483;-76
2022/03/20 08:13:49;;;;;;;1.50;1.20;;;8.80;71.50;;;;;;5028648;28;20459;-75
2022/03/20 08:16:16;;;;;;;1.50;1.20;;;8.90;72.30;;;;;;5028396;28;20483;-73
2022/03/20 08:18:44;;;;;;;1.50;1.10;;;9.00;72.00;;;;;;5027785;28;20467;-78
2022/03/20 08:21:12;;;;;;;2.33;2.13;;;9.00;71.90;;;;;;5022195;28;20492;-73
2022/03/20 08:23:40;;;;;;;1.50;1.40;;;9.10;71.90;;;;;;5054212;28;20836;-71
2022/03/20 08:26:08;;;;;;;3.23;2.70;;;9.10;71.50;;;;;;5028886;28;20470;-73
2022/03/20 08:28:36;;;;;;;2.07;1.87;;;9.20;71.40;;;;;;5029993;28;20521;-76
2022/03/20 08:31:05;;;;;;;1.50;1.20;;;9.30;71.50;;;;;;5027651;28;20490;-75
2022/03/20 08:33:31;;;;;;;6.70;4.70;;;9.40;71.40;;;;;;5026224;28;20517;-71
2022/03/20 08:35:58;;;;;;;3.77;2.67;;;9.70;71.20;;;;;;5026625;28;20875;-70
2022/03/20 08:38:25;;;;;;;6.00;5.50;;;9.80;70.40;;;;;;5025971;28;20477;-70
2022/03/20 08:40:52;;;;;;;2.07;1.87;;;9.80;70.70;;;;;;5026751;28;20466;-71
2022/03/20 08:43:22;;;;;;;1.50;1.10;;;9.90;70.50;;;;;;5028206;28;20841;-72
2022/03/20 08:45:50;;;;;;;3.73;3.43;;;9.90;70.40;;;;;;5028442;28;21372;-76
2022/03/20 08:48:19;;;;;;;1.50;1.07;;;10.00;70.70;;;;;;5023151;28;20463;-72
2022/03/20 08:50:48;;;;;;;1.50;1.13;;;10.00;70.50;;;;;;5040079;22;20541;-73
2022/03/20 08:53:17;;;;;;;8.60;6.53;;;10.10;70.00;;;;;;5016310;28;20507;-74
2022/03/20 08:55:44;;;;;;;1.47;1.20;;;10.30;70.00;;;;;;5015999;28;20537;-75
2022/03/20 08:58:11;;;;;;;1.47;1.10;;;10.30;69.40;;;;;;5037556;28;20479;-74
2022/03/20 09:00:39;;;;;;;1.87;1.77;;;10.30;69.40;;;;;;5026997;28;20486;-73
2022/03/20 09:03:06;;;;;;;2.33;2.13;;;10.30;69.30;;;;;;5028817;28;20506;-74
2022/03/20 09:05:34;;;;;;;1.50;1.20;;;10.20;69.50;;;;;;5028888;28;20459;-74
2022/03/20 09:08:01;;;;;;;1.50;1.40;;;10.00;70.10;;;;;;5039529;28;20488;-73
2022/03/20 09:10:28;;;;;;;1.50;1.10;;;9.90;70.60;;;;;;5027310;28;20999;-75
2022/03/20 09:12:55;;;;;;;3.50;3.20;;;10.00;70.70;;;;;;5026104;28;20459;-74
2022/03/20 09:15:23;;;;;;;1.70;1.60;;;10.00;71.00;;;;;;5028117;28;20487;-73
2022/03/20 09:20:36;;;;;;;1.50;1.10;;;9.80;71.10;;;;;;5029604;28;20466;-73
2022/03/20 09:23:04;;;;;;;1.70;1.60;;;9.60;71.30;;;;;;5018909;28;20953;-73
2022/03/20 09:25:32;;;;;;;1.50;1.20;;;9.70;72.00;;;;;;5024045;28;20464;-73
2022/03/20 09:27:58;;;;;;;2.03;1.93;;;9.90;71.70;;;;;;5026833;28;20494;-73
2022/03/20 09:30:26;;;;;;;1.50;1.20;;;10.20;71.10;;;;;;5027358;28;20487;-73
2022/03/20 09:32:53;;;;;;;3.57;3.27;;;10.50;70.80;;;;;;5026580;28;20854;-74
2022/03/20 09:35:20;;;;;;;1.90;1.60;;;10.70;69.70;;;;;;5029844;28;20986;-73
2022/03/20 09:37:48;;;;;;;3.77;3.47;;;10.80;69.50;;;;;;5029129;28;20490;-74
2022/03/20 09:40:15;;;;;;;2.80;2.60;;;10.80;69.40;;;;;;5027759;28;20474;-74
2022/03/20 09:42:42;;;;;;;2.33;2.07;;;10.90;69.10;;;;;;5026031;28;21034;-74
2022/03/20 09:45:13;;;;;;;7.17;3.00;;;10.90;69.10;;;;;;5028305;28;20978;-74
2022/03/20 09:47:41;;;;;;;1.43;1.00;;;11.00;69.50;;;;;;5024567;28;20475;-74
2022/03/20 09:50:10;;;;;;;2.60;2.40;;;11.10;69.30;;;;;;5023632;28;21276;-74
2022/03/20 09:52:38;;;;;;;1.50;1.10;;;11.10;69.60;;;;;;5021218;28;20478;-75
2022/03/20 09:55:08;;;;;;;1.50;1.00;;;11.10;69.20;;;;;;5024071;28;20463;-74
2022/03/20 09:57:35;;;;;;;3.57;2.43;;;11.10;69.50;;;;;;5028732;28;20867;-74
2022/03/20 10:00:06;;;;;;;1.50;1.10;;;11.00;69.60;;;;;;5028710;28;20462;-74
2022/03/20 10:02:33;;;;;;;1.50;1.00;;;11.10;69.80;;;;;;5032074;28;21160;-76
2022/03/20 10:05:01;;;;;;;1.60;1.30;;;11.10;70.10;;;;;;5034006;28;20474;-76
2022/03/20 10:07:29;;;;;;;1.50;1.20;;;11.10;69.60;;;;;;5030560;28;20454;-75
2022/03/20 10:10:13;;;;;;;1.47;1.07;;;11.10;69.90;;;;;;5023477;28;20474;-78
2022/03/20 10:12:44;;;;;;;2.23;1.73;;;11.10;70.10;;;;;;5027878;28;20899;-76
2022/03/20 10:15:25;;;;;;;1.50;1.10;;;11.10;70.00;;;;;;5047426;28;21055;-77
2022/03/20 10:18:06;;;;;;;1.93;1.77;;;11.00;70.30;;;;;;5045331;28;20645;-75
2022/03/20 10:20:36;;;;;;;1.77;1.47;;;11.00;70.80;;;;;;5045779;28;20485;-75
2022/03/20 10:23:03;;;;;;;1.50;1.00;;;11.20;70.60;;;;;;5042667;28;20799;-76
2022/03/20 10:25:31;;;;;;;1.60;1.40;;;11.40;70.10;;;;;;5048137;28;20837;-74
2022/03/20 10:28:00;;;;;;;1.50;1.20;;;11.60;69.70;;;;;;5039429;28;20478;-73
2022/03/20 10:30:27;;;;;;;6.13;3.43;;;11.70;69.20;;;;;;5044128;28;20477;-73
2022/03/20 10:32:54;;;;;;;9.73;2.80;;;11.80;69.40;;;;;;5045374;28;20988;-73
2022/03/20 10:35:21;;;;;;;1.50;1.00;;;11.80;69.10;;;;;;5045645;28;20469;-73
2022/03/20 10:37:54;;;;;;;2.43;2.23;;;11.80;69.00;;;;;;5015174;28;20487;-73
2022/03/20 10:40:24;;;;;;;1.50;1.03;;;11.80;69.00;;;;;;5045756;28;20890;-73
2022/03/20 10:43:09;;;;;;;6.60;1.67;;;11.80;69.30;;;;;;5044969;28;20470;-72
2022/03/20 10:45:51;;;;;;;1.50;1.10;;;11.90;69.20;;;;;;5038470;28;20474;-72
2022/03/20 10:48:28;;;;;;;1.80;1.10;;;12.10;69.50;;;;;;5039920;28;20505;-74
2022/03/20 10:50:55;;;;;;;1.50;1.00;;;12.40;68.60;;;;;;5043293;28;21005;-72
2022/03/20 10:53:22;;;;;;;1.73;1.63;;;12.60;68.80;;;;;;5038639;28;20466;-73
2022/03/20 10:55:50;;;;;;;3.07;2.80;;;12.80;68.10;;;;;;5040308;28;20966;-73
2022/03/20 10:58:23;;;;;;;1.50;1.00;;;12.90;67.60;;;;;;5043438;28;20469;-73
2022/03/20 11:00:50;;;;;;;1.50;1.00;;;13.10;68.00;;;;;;5039897;28;20482;-72
2022/03/20 11:03:22;;;;;;;1.50;1.10;;;13.20;67.30;;;;;;5038266;28;20466;-73
2022/03/20 11:05:49;;;;;;;1.67;1.57;;;13.20;67.40;;;;;;5034975;28;20481;-73
2022/03/20 11:08:18;;;;;;;2.70;2.50;;;13.30;67.50;;;;;;5042726;28;20469;-72
2022/03/20 11:10:48;;;;;;;1.60;1.33;;;13.30;67.00;;;;;;5024014;28;20489;-73
2022/03/20 11:13:17;;;;;;;2.60;2.40;;;13.30;66.90;;;;;;5038431;28;20927;-73
2022/03/20 11:15:46;;;;;;;2.80;2.50;;;13.50;67.50;;;;;;5045236;28;20494;-72
2022/03/20 11:18:15;;;;;;;1.70;1.40;;;13.50;67.50;;;;;;4992594;28;20507;-73
2022/03/20 11:20:46;;;;;;;1.47;1.00;;;13.40;67.70;;;;;;5021819;28;20479;-73
2022/03/20 11:23:15;;;;;;;4.90;4.60;;;13.30;67.70;;;;;;5022225;28;20850;-74
2022/03/20 11:25:46;;;;;;;3.50;1.87;;;13.40;68.30;;;;;;5023328;28;21037;-73
2022/03/20 11:28:15;;;;;;;2.23;1.93;;;13.40;67.80;;;;;;5023894;28;20770;-73
2022/03/20 11:30:45;;;;;;;1.60;1.40;;;13.30;67.90;;;;;;5024959;28;20996;-76
2022/03/20 11:33:14;;;;;;;1.50;1.00;;;13.30;68.80;;;;;;5023075;28;20548;-77
2022/03/20 11:35:41;;;;;;;2.27;2.07;;;13.10;68.40;;;;;;5024084;28;20469;-76
2022/03/20 11:38:16;;;;;;;1.60;1.40;;;13.10;69.10;;;;;;5024934;28;20491;-75
2022/03/20 11:41:08;;;;;;;1.90;1.57;;;13.00;69.60;;;;;;5021464;28;20489;-74
2022/03/20 11:43:37;;;;;;;2.00;1.90;;;12.90;69.50;;;;;;5022511;28;20934;-73
2022/03/20 11:46:21;;;;;;;1.50;1.00;;;12.90;69.90;;;;;;5010004;28;20684;-74
2022/03/20 11:49:24;;;;;;;2.33;1.93;;;12.90;69.90;;;;;;5017548;28;20462;-73
2022/03/20 11:51:56;;;;;;;1.60;1.40;;;12.70;70.40;;;;;;5024717;28;20504;-73
2022/03/20 11:54:31;;;;;;;2.13;1.93;;;12.70;70.50;;;;;;5024166;28;20808;-74
2022/03/20 11:57:08;;;;;;;1.73;1.50;;;12.60;70.70;;;;;;5032322;28;20490;-74
2022/03/20 11:59:57;;;;;;;1.47;1.00;;;12.60;71.00;;;;;;5024647;28;20851;-74
2022/03/20 12:02:50;;;;;;;1.70;1.47;;;12.50;71.50;;;;;;5019996;28;20586;-71
2022/03/20 12:05:37;;;;;;;1.50;1.30;;;12.50;72.10;;;;;;5030751;28;20573;-71
2022/03/20 12:08:24;;;;;;;1.60;1.30;;;12.50;72.60;;;;;;5022618;28;20459;-71
2022/03/20 12:11:03;;;;;;;1.60;1.43;;;12.30;73.10;;;;;;5006015;28;20494;-74
2022/03/20 12:13:42;;;;;;;2.40;2.20;;;12.30;73.70;;;;;;5021706;28;20474;-74
2022/03/20 12:16:09;;;;;;;1.50;1.27;;;12.20;74.20;;;;;;5038303;28;20491;-74
2022/03/20 12:19:11;;;;;;;1.50;1.07;;;12.20;74.30;;;;;;5035308;28;20474;-73
2022/03/20 12:21:59;;;;;;;1.93;1.83;;;12.20;74.30;;;;;;5033120;28;20489;-74
2022/03/20 12:24:52;;;;;;;1.50;1.10;;;12.20;74.10;;;;;;5018079;28;20470;-73
2022/03/20 12:27:43;;;;;;;3.00;2.70;;;12.10;74.50;;;;;;4992763;28;20487;-72
2022/03/20 12:30:35;;;;;;;1.70;1.53;;;12.10;74.70;;;;;;5042221;28;21138;-73
2022/03/20 12:33:18;;;;;;;3.20;2.90;;;12.10;74.80;;;;;;5040116;28;20524;-72
2022/03/20 12:35:50;;;;;;;1.70;1.40;;;12.00;75.40;;;;;;5039914;28;20472;-72
2022/03/20 12:38:46;;;;;;;1.50;1.20;;;12.00;75.50;;;;;;5022935;28;21049;-72
2022/03/20 12:41:17;;;;;;;1.73;1.63;;;12.00;76.30;;;;;;5038193;28;20605;-72
2022/03/20 12:43:58;;;;;;;1.50;1.30;;;12.00;79.30;;;;;;5039525;28;20454;-71
2022/03/20 12:46:29;;;;;;;1.50;1.10;;;11.90;80.80;;;;;;5041202;28;20649;-71
2022/03/20 12:48:58;;;;;;;4.13;3.93;;;11.90;82.40;;;;;;5025440;28;20465;-72
2022/03/20 12:51:38;;;;;;;1.60;1.30;;;11.90;83.60;;;;;;5021365;28;20496;-71
2022/03/20 12:54:15;;;;;;;1.50;1.10;;;11.80;83.20;;;;;;5022045;28;20481;-71
2022/03/20 12:57:03;;;;;;;1.50;1.20;;;11.80;83.50;;;;;;5021232;28;20872;-71
2022/03/20 12:59:31;;;;;;;1.50;1.07;;;11.70;83.50;;;;;;5033527;28;20462;-73
2022/03/20 13:02:06;;;;;;;1.50;1.23;;;11.60;83.10;;;;;;5019401;28;20571;-73
2022/03/20 13:04:34;;;;;;;1.50;1.20;;;11.60;84.00;;;;;;5037128;28;20539;-73
2022/03/20 13:07:22;;;;;;;1.50;1.00;;;11.50;84.60;;;;;;5030139;28;20522;-73
2022/03/20 13:09:59;;;;;;;1.47;1.00;;;11.50;84.90;;;;;;5017007;28;20469;-73
2022/03/20 13:12:27;;;;;;;1.50;1.10;;;11.50;86.50;;;;;;5035562;28;20494;-72
2022/03/20 13:14:58;;;;;;;1.50;1.20;;;11.30;88.90;;;;;;5024677;28;20458;-73
2022/03/20 13:17:27;;;;;;;1.50;1.10;;;11.10;90.40;;;;;;5038580;28;20489;-72
2022/03/20 13:19:56;;;;;;;1.50;1.17;;;11.00;91.30;;;;;;5024007;28;20472;-72
2022/03/20 13:22:25;;;;;;;2.00;1.60;;;11.00;92.70;;;;;;5017743;28;20995;-72
2022/03/20 13:24:56;;;;;;;1.60;1.40;;;10.80;93.30;;;;;;5037074;28;20474;-72